createdAt,value
2018-09-23T00:00:01.165Z,1.30
2018-09-23T00:02:29.563Z,0.90
2018-09-23T00:04:57.168Z,0.90
2018-09-23T00:07:24.890Z,1.50
2018-09-23T00:09:52.567Z,1.00
2018-09-23T00:12:20.165Z,0.90
2018-09-23T00:14:48.687Z,1.32
2018-09-23T00:17:16.288Z,1.25
2018-09-23T00:19:44.085Z,1.30
2018-09-23T00:22:11.843Z,1.20
2018-09-23T00:24:39.553Z,0.85
2018-09-23T00:27:07.916Z,1.07
2018-09-23T00:29:41.153Z,1.07
2018-09-23T00:32:10.176Z,1.30
2018-09-23T00:34:37.779Z,1.20
2018-09-23T00:37:05.384Z,1.22
2018-09-23T00:39:33.168Z,2.10
2018-09-23T00:42:00.832Z,1.42
2018-09-23T00:44:28.468Z,1.52
2018-09-23T00:46:56.370Z,1.45
2018-09-23T00:49:24.230Z,1.45
2018-09-23T00:51:52.080Z,1.90
2018-09-23T00:54:19.983Z,1.30
2018-09-23T00:56:47.670Z,1.35
2018-09-23T00:59:15.406Z,2.50
2018-09-23T01:01:43.536Z,1.80
2018-09-23T01:04:11.121Z,2.42
2018-09-23T01:06:38.821Z,1.47
2018-09-23T01:09:08.676Z,2.17
2018-09-23T01:11:36.674Z,1.77
2018-09-23T01:14:04.635Z,1.60
2018-09-23T01:16:32.471Z,2.50
2018-09-23T01:19:00.235Z,2.42
2018-09-23T01:21:34.624Z,2.58
2018-09-23T01:24:02.300Z,2.45
2018-09-23T01:26:30.000Z,3.08
2018-09-23T01:28:58.130Z,2.30
2018-09-23T01:31:25.742Z,2.62
2018-09-23T01:33:53.450Z,1.98
2018-09-23T01:36:21.485Z,2.30
2018-09-23T01:38:49.195Z,1.55
2018-09-23T01:41:17.556Z,1.42
2018-09-23T01:43:45.121Z,4.12
2018-09-23T01:46:12.855Z,1.07
2018-09-23T01:48:40.561Z,1.20
2018-09-23T01:51:08.200Z,1.12
2018-09-23T01:53:36.480Z,1.20
2018-09-23T01:56:04.091Z,1.35
2018-09-23T01:58:31.617Z,1.20
2018-09-23T02:00:59.257Z,1.22
2018-09-23T02:03:26.803Z,1.90
2018-09-23T02:05:54.327Z,1.77
2018-09-23T02:08:22.119Z,2.37
2018-09-23T02:10:49.725Z,1.70
2018-09-23T02:13:17.321Z,2.40
2018-09-23T02:15:44.950Z,2.55
2018-09-23T02:18:12.515Z,1.72
2018-09-23T02:20:40.228Z,1.90
2018-09-23T02:23:07.856Z,1.30
2018-09-23T02:25:35.517Z,1.45
2018-09-23T02:28:03.169Z,1.55
2018-09-23T02:30:31.741Z,1.87
2018-09-23T02:32:59.678Z,1.35
2018-09-23T02:35:27.204Z,2.00
2018-09-23T02:37:55.309Z,1.40
2018-09-23T02:40:23.196Z,1.72
2018-09-23T02:42:50.794Z,1.52
2018-09-23T02:45:18.476Z,1.25
2018-09-23T02:47:46.132Z,1.40
2018-09-23T02:50:13.732Z,1.62
2018-09-23T02:52:41.291Z,1.80
2018-09-23T02:55:08.929Z,1.92
2018-09-23T02:57:36.632Z,2.22
2018-09-23T03:00:05.300Z,2.30
2018-09-23T03:02:33.028Z,2.30
2018-09-23T03:05:00.647Z,2.22
2018-09-23T03:07:28.288Z,2.83
2018-09-23T03:09:55.858Z,2.65
2018-09-23T03:12:23.538Z,2.92
2018-09-23T03:14:51.276Z,1.95
2018-09-23T03:17:18.963Z,2.12
2018-09-23T03:19:46.587Z,2.50
2018-09-23T03:22:14.256Z,3.95
2018-09-23T03:24:41.976Z,3.67
2018-09-23T03:27:09.775Z,2.47
2018-09-23T03:29:37.379Z,1.70
2018-09-23T03:32:05.836Z,2.42
2018-09-23T03:34:33.748Z,2.45
2018-09-23T03:37:01.409Z,1.30
2018-09-23T03:39:35.911Z,2.35
2018-09-23T03:42:03.672Z,1.50
2018-09-23T03:44:31.463Z,2.00
2018-09-23T03:46:59.073Z,2.12
2018-09-23T03:49:26.713Z,2.77
2018-09-23T03:51:55.313Z,3.90
2018-09-23T03:54:23.508Z,3.42
2018-09-23T03:56:51.996Z,2.95
2018-09-23T03:59:19.633Z,2.87
2018-09-23T04:01:47.438Z,2.05
2018-09-23T04:04:14.998Z,1.95
2018-09-23T04:06:42.628Z,3.08
2018-09-23T04:09:10.937Z,2.17
2018-09-23T04:11:38.568Z,1.92
2018-09-23T04:14:06.143Z,2.22
2018-09-23T04:16:34.054Z,1.85
2018-09-23T04:19:02.373Z,2.35
2018-09-23T04:21:29.984Z,1.62
2018-09-23T04:23:57.547Z,1.95
2018-09-23T04:26:25.206Z,2.10
2018-09-23T04:28:52.767Z,1.27
2018-09-23T04:31:20.377Z,1.95
2018-09-23T04:33:47.967Z,1.85
2018-09-23T04:36:15.581Z,1.30
2018-09-23T04:38:43.106Z,1.80
2018-09-23T04:41:10.668Z,1.30
2018-09-23T04:43:38.260Z,2.58
2018-09-23T04:46:05.973Z,1.40
2018-09-23T04:48:33.596Z,2.08
2018-09-23T04:51:01.233Z,1.50
2018-09-23T04:53:29.089Z,1.45
2018-09-23T04:55:56.700Z,1.30
2018-09-23T04:58:24.247Z,1.60
2018-09-23T05:00:51.893Z,2.50
2018-09-23T05:03:19.843Z,1.52
2018-09-23T05:05:47.410Z,1.70
2018-09-23T05:08:15.044Z,1.60
2018-09-23T05:10:43.454Z,1.70
2018-09-23T05:13:11.407Z,1.75
2018-09-23T05:15:39.045Z,1.70
2018-09-23T05:18:06.650Z,1.80
2018-09-23T05:20:34.351Z,1.82
2018-09-23T05:23:02.001Z,1.55
2018-09-23T05:25:29.687Z,2.02
2018-09-23T05:27:57.268Z,2.02
2018-09-23T05:30:24.866Z,1.95
2018-09-23T05:32:52.700Z,2.00
2018-09-23T05:35:20.446Z,1.80
2018-09-23T05:37:47.973Z,1.80
2018-09-23T05:40:15.786Z,2.35
2018-09-23T05:42:43.532Z,2.35
2018-09-23T05:45:11.121Z,1.37
2018-09-23T05:47:38.953Z,2.02
2018-09-23T05:50:07.157Z,2.08
2018-09-23T05:52:35.775Z,2.85
2018-09-23T05:55:03.452Z,2.40
2018-09-23T05:57:32.088Z,1.65
2018-09-23T05:59:59.747Z,2.60
2018-09-23T06:02:27.873Z,2.52
2018-09-23T06:04:55.486Z,2.65
2018-09-23T06:07:24.364Z,2.35
2018-09-23T06:09:52.188Z,2.87
2018-09-23T06:12:19.893Z,2.12
2018-09-23T06:14:48.126Z,3.85
2018-09-23T06:17:15.727Z,2.47
2018-09-23T06:19:43.299Z,2.52
2018-09-23T06:22:11.040Z,2.80
2018-09-23T06:24:38.713Z,2.15
2018-09-23T06:27:06.434Z,2.52
2018-09-23T06:29:34.138Z,2.10
2018-09-23T06:32:01.745Z,2.30
2018-09-23T06:34:29.342Z,2.30
2018-09-23T06:36:57.234Z,2.25
2018-09-23T06:39:24.863Z,2.67
2018-09-23T06:41:52.430Z,2.30
2018-09-23T06:44:20.141Z,3.10
2018-09-23T06:46:47.749Z,1.82
2018-09-23T06:49:15.347Z,1.82
2018-09-23T06:51:42.976Z,2.55
2018-09-23T06:54:10.660Z,2.55
2018-09-23T06:56:38.177Z,2.02
2018-09-23T06:59:06.134Z,2.40
2018-09-23T07:01:33.800Z,2.12
2018-09-23T07:04:01.368Z,2.75
2018-09-23T07:06:28.942Z,1.70
2018-09-23T07:08:56.882Z,3.37
2018-09-23T07:11:25.244Z,1.90
2018-09-23T07:13:52.883Z,2.10
2018-09-23T07:16:20.444Z,1.50
2018-09-23T07:18:48.130Z,2.50
2018-09-23T07:21:16.147Z,1.75
2018-09-23T07:23:43.987Z,1.40
2018-09-23T07:26:12.464Z,2.10
2018-09-23T07:28:41.568Z,1.70
2018-09-23T07:31:09.360Z,2.17
2018-09-23T07:33:36.944Z,1.55
2018-09-23T07:36:04.742Z,1.45
2018-09-23T07:38:33.021Z,1.27
2018-09-23T07:41:01.093Z,1.85
2018-09-23T07:43:30.885Z,1.75
2018-09-23T07:45:58.712Z,1.55
2018-09-23T07:48:26.618Z,1.22
2018-09-23T07:50:55.529Z,1.80
2018-09-23T07:53:23.328Z,1.70
2018-09-23T07:55:52.211Z,1.62
2018-09-23T07:58:20.901Z,1.85
2018-09-23T08:00:57.170Z,1.47
2018-09-23T08:03:25.159Z,1.60
2018-09-23T08:05:53.070Z,2.05
2018-09-23T08:38:35.552Z,1.20
2018-09-23T08:41:03.569Z,1.37
2018-09-23T08:43:31.853Z,1.20
2018-09-23T08:46:00.856Z,1.03
2018-09-23T08:48:30.097Z,0.93
2018-09-23T08:50:57.789Z,1.00
2018-09-23T08:53:26.014Z,1.00
2018-09-23T08:55:54.050Z,1.00
2018-09-23T08:58:21.958Z,0.80
2018-09-23T09:00:49.858Z,1.00
2018-09-23T09:03:17.680Z,0.90
2018-09-23T09:05:46.137Z,1.10
2018-09-23T09:08:13.789Z,1.00
2018-09-23T09:10:41.827Z,0.90
2018-09-23T09:13:09.723Z,1.10
2018-09-23T09:15:42.179Z,1.40
2018-09-23T09:18:13.412Z,0.90
2018-09-23T09:20:41.150Z,1.00
2018-09-23T09:23:08.914Z,0.97
2018-09-23T09:25:36.900Z,0.97
2018-09-23T09:28:04.536Z,0.87
2018-09-23T09:30:32.201Z,0.90
2018-09-23T09:32:59.992Z,1.30
2018-09-23T09:35:27.853Z,0.80
2018-09-23T09:37:55.539Z,1.20
2018-09-23T09:40:23.316Z,1.20
2018-09-23T09:42:51.524Z,0.90
2018-09-23T09:45:19.301Z,0.90
2018-09-23T09:47:47.627Z,0.80
2018-09-23T09:50:15.394Z,1.00
2018-09-23T09:52:43.306Z,0.90
2018-09-23T09:55:12.116Z,1.10
2018-09-23T09:57:40.437Z,1.20
2018-09-23T10:00:08.132Z,0.93
2018-09-23T10:02:35.852Z,1.03
2018-09-23T10:05:03.870Z,0.80
2018-09-23T10:07:31.481Z,1.03
2018-09-23T10:10:00.069Z,1.67
2018-09-23T10:12:27.677Z,1.40
2018-09-23T10:14:55.441Z,0.80
2018-09-23T10:17:23.064Z,0.90
2018-09-23T10:19:50.792Z,1.23
2018-09-23T10:22:18.502Z,1.00
2018-09-23T10:24:46.149Z,0.97
2018-09-23T10:27:13.804Z,1.00
2018-09-23T10:29:41.741Z,1.03
2018-09-23T10:32:09.520Z,1.00
2018-09-23T10:34:37.306Z,0.70
2018-09-23T10:37:05.025Z,1.67
2018-09-23T10:39:33.673Z,0.87
2018-09-23T10:42:01.457Z,0.70
2018-09-23T10:44:29.228Z,0.80
2018-09-23T10:46:58.092Z,1.43
2018-09-23T10:49:25.796Z,0.90
2018-09-23T10:51:53.370Z,0.80
2018-09-23T10:54:21.343Z,0.80
2018-09-23T10:56:55.871Z,1.17
2018-09-23T10:59:23.590Z,0.77
2018-09-23T11:01:51.932Z,0.90
2018-09-23T11:04:19.802Z,0.60
2018-09-23T11:06:47.696Z,0.70
2018-09-23T11:09:15.978Z,0.80
2018-09-23T11:11:43.764Z,0.80
2018-09-23T11:14:11.722Z,0.70
2018-09-23T11:16:39.469Z,0.67
2018-09-23T11:19:08.043Z,0.70
2018-09-23T11:21:35.947Z,0.70
2018-09-23T11:24:04.603Z,0.70
2018-09-23T11:26:32.254Z,0.80
2018-09-23T11:29:00.210Z,0.60
2018-09-23T11:31:27.839Z,1.20
2018-09-23T11:33:56.855Z,0.70
2018-09-23T11:36:24.564Z,0.83
2018-09-23T11:38:52.265Z,0.60
2018-09-23T11:41:20.028Z,0.60
2018-09-23T11:43:47.944Z,0.90
2018-09-23T11:46:16.303Z,0.90
2018-09-23T11:48:44.555Z,0.60
2018-09-23T11:51:13.444Z,0.70
2018-09-23T11:53:41.845Z,0.60
2018-09-23T11:56:10.080Z,0.60
2018-09-23T11:58:37.875Z,0.60
2018-09-23T12:01:06.020Z,0.60
2018-09-23T12:03:33.824Z,0.60
2018-09-23T12:06:01.835Z,0.60
2018-09-23T12:08:29.715Z,1.10
2018-09-23T12:10:57.613Z,0.70
2018-09-23T12:13:25.236Z,0.60
2018-09-23T12:15:53.625Z,0.57
2018-09-23T12:18:21.227Z,0.60
2018-09-23T12:20:49.100Z,0.50
2018-09-23T12:23:17.440Z,0.70
2018-09-23T12:25:45.195Z,0.47
2018-09-23T12:28:12.993Z,0.50
2018-09-23T12:30:40.600Z,0.50
2018-09-23T12:33:08.327Z,0.50
2018-09-23T12:35:36.689Z,0.50
2018-09-23T12:38:04.597Z,0.50
2018-09-23T12:40:33.139Z,0.60
2018-09-23T12:43:00.858Z,0.50
2018-09-23T12:45:29.291Z,0.60
2018-09-23T12:47:57.190Z,0.50
2018-09-23T12:50:25.067Z,0.57
2018-09-23T12:52:53.504Z,0.50
2018-09-23T12:55:21.417Z,0.50
2018-09-23T12:57:49.120Z,0.50
2018-09-23T13:00:17.822Z,0.50
2018-09-23T13:02:45.748Z,0.50
2018-09-23T13:05:14.767Z,0.50
2018-09-23T13:07:42.574Z,0.53
2018-09-23T13:10:10.558Z,0.60
2018-09-23T13:12:39.299Z,0.53
2018-09-23T13:15:07.345Z,0.57
2018-09-23T13:17:35.802Z,0.50
2018-09-23T13:20:04.349Z,0.50
2018-09-23T13:22:32.223Z,0.40
2018-09-23T13:25:01.254Z,0.70
2018-09-23T13:27:29.595Z,0.40
2018-09-23T13:29:57.610Z,0.70
2018-09-23T13:32:25.815Z,0.50
2018-09-23T13:34:54.407Z,0.40
2018-09-23T13:37:22.469Z,0.47
2018-09-23T13:39:50.469Z,0.50
2018-09-23T13:42:18.875Z,0.50
2018-09-23T13:44:46.866Z,0.40
2018-09-23T13:47:15.057Z,0.40
2018-09-23T13:49:43.604Z,0.40
2018-09-23T13:52:13.056Z,0.40
2018-09-23T13:54:41.461Z,0.50
2018-09-23T13:57:10.054Z,0.40
2018-09-23T13:59:38.080Z,0.50
2018-09-23T14:02:06.031Z,0.50
2018-09-23T14:04:34.674Z,0.40
2018-09-23T14:07:02.678Z,0.50
2018-09-23T14:09:30.658Z,0.40
2018-09-23T14:11:58.661Z,0.50
2018-09-23T14:14:26.402Z,0.40
2018-09-23T14:16:54.330Z,0.47
2018-09-23T14:19:23.531Z,0.50
2018-09-23T14:21:52.293Z,0.50
2018-09-23T14:24:20.179Z,0.50
2018-09-23T14:26:47.872Z,0.50
2018-09-23T14:29:16.763Z,0.43
2018-09-23T14:31:44.574Z,0.40
2018-09-23T14:34:13.321Z,0.50
2018-09-23T14:36:41.392Z,0.50
2018-09-23T14:39:10.957Z,0.50
2018-09-23T14:41:43.328Z,0.40
2018-09-23T14:44:11.364Z,0.60
2018-09-23T14:46:39.325Z,0.40
2018-09-23T14:49:07.167Z,0.50
2018-09-23T14:51:35.680Z,0.40
2018-09-23T14:54:03.616Z,0.50
2018-09-23T14:56:31.703Z,0.50
2018-09-23T14:59:00.813Z,0.50
2018-09-23T15:01:29.806Z,0.50
2018-09-23T15:03:57.573Z,0.40
2018-09-23T15:06:26.113Z,0.40
2018-09-23T15:08:53.906Z,0.50
2018-09-23T15:11:21.676Z,0.50
2018-09-23T15:13:49.687Z,0.60
2018-09-23T15:16:17.835Z,0.57
2018-09-23T15:18:46.365Z,0.50
2018-09-23T15:21:14.383Z,0.60
2018-09-23T15:23:42.336Z,0.60
2018-09-23T15:26:10.100Z,0.60
2018-09-23T15:28:37.954Z,0.80
2018-09-23T15:31:05.842Z,0.70
2018-09-23T15:33:33.704Z,1.70
2018-09-23T15:36:01.737Z,1.00
2018-09-23T15:38:29.582Z,0.97
2018-09-23T15:40:57.513Z,1.27
2018-09-23T15:43:25.466Z,0.87
2018-09-23T15:45:53.860Z,0.80
2018-09-23T15:48:22.113Z,0.83
2018-09-23T15:50:50.925Z,1.03
2018-09-23T15:53:18.734Z,1.00
2018-09-23T15:55:46.852Z,0.77
2018-09-23T15:58:14.528Z,0.73
2018-09-23T16:00:42.274Z,1.00
2018-09-23T16:03:10.730Z,0.80
2018-09-23T16:05:38.629Z,0.90
2018-09-23T16:08:06.737Z,0.93
2018-09-23T16:10:34.873Z,0.87
2018-09-23T16:13:02.641Z,0.70
2018-09-23T16:15:31.041Z,0.70
2018-09-23T16:17:58.820Z,0.70
2018-09-23T16:20:26.936Z,0.70
2018-09-23T16:22:55.100Z,0.77
2018-09-23T16:25:23.001Z,0.70
2018-09-23T16:27:50.870Z,0.68
2018-09-23T16:30:19.095Z,0.50
2018-09-23T16:32:46.912Z,0.50
2018-09-23T16:35:15.061Z,0.42
2018-09-23T16:37:44.107Z,0.47
2018-09-23T16:40:12.523Z,0.50
2018-09-23T16:42:40.652Z,0.40
2018-09-23T16:45:09.010Z,0.40
2018-09-23T16:47:37.135Z,0.50
2018-09-23T16:50:05.913Z,0.50
2018-09-23T16:52:33.748Z,0.37
2018-09-23T16:55:01.704Z,0.70
2018-09-23T16:57:29.838Z,0.42
2018-09-23T16:59:57.695Z,0.45
2018-09-23T17:02:26.136Z,0.50
2018-09-23T17:04:54.607Z,0.50
2018-09-23T17:07:22.534Z,0.50
2018-09-23T17:09:50.814Z,0.40
2018-09-23T17:12:18.581Z,0.50
2018-09-23T17:14:46.735Z,0.50
2018-09-23T17:17:15.123Z,0.60
2018-09-23T17:19:43.058Z,0.50
2018-09-23T17:22:11.152Z,0.50
2018-09-23T17:24:38.973Z,0.60
2018-09-23T17:27:06.912Z,0.55
2018-09-23T17:29:35.188Z,0.50
2018-09-23T17:32:03.337Z,0.50
2018-09-23T17:34:32.087Z,0.50
2018-09-23T17:37:00.510Z,0.40
2018-09-23T17:39:28.491Z,0.50
2018-09-23T17:41:56.585Z,0.60
2018-09-23T17:44:26.592Z,0.50
2018-09-23T17:46:54.787Z,0.47
2018-09-23T17:49:22.820Z,0.50
2018-09-23T17:51:51.336Z,0.55
2018-09-23T17:54:19.797Z,0.70
2018-09-23T17:56:47.835Z,0.50
2018-09-23T17:59:17.385Z,0.50
2018-09-23T18:01:45.533Z,0.60
2018-09-23T18:04:13.507Z,0.80
2018-09-23T18:06:41.454Z,0.60
2018-09-23T18:09:09.982Z,0.60
2018-09-23T18:11:38.194Z,0.78
2018-09-23T18:14:06.149Z,0.70
2018-09-23T18:16:34.166Z,0.80
2018-09-23T18:19:02.010Z,0.70
2018-09-23T18:21:30.143Z,0.60
2018-09-23T18:26:38.320Z,0.70
2018-09-23T18:29:07.363Z,0.75
2018-09-23T18:31:35.460Z,0.60
2018-09-23T18:34:04.318Z,0.60
2018-09-23T18:36:32.975Z,0.50
2018-09-23T18:39:00.993Z,0.60
2018-09-23T18:41:28.995Z,0.45
2018-09-23T18:43:58.264Z,0.55
2018-09-23T18:46:26.477Z,0.50
2018-09-23T18:48:54.578Z,0.50
2018-09-23T18:51:26.787Z,0.60
2018-09-23T18:54:00.624Z,0.60
2018-09-23T18:56:28.549Z,0.60
2018-09-23T18:58:57.095Z,0.93
2018-09-23T19:01:25.758Z,0.60
2018-09-23T19:03:53.745Z,0.55
2018-09-23T19:06:21.720Z,0.50
2018-09-23T19:08:50.702Z,0.50
2018-09-23T19:11:18.680Z,0.60
2018-09-23T19:13:51.510Z,0.60
2018-09-23T19:16:25.098Z,0.62
2018-09-23T19:18:54.518Z,0.40
2018-09-23T19:21:23.220Z,0.60
2018-09-23T19:23:52.747Z,0.60
2018-09-23T19:26:26.083Z,0.53
2018-09-23T19:28:54.286Z,0.50
2018-09-23T19:31:24.790Z,0.55
2018-09-23T19:33:52.978Z,0.60
2018-09-23T19:36:20.855Z,0.50
2018-09-23T19:38:49.091Z,0.50
2018-09-23T19:41:21.501Z,0.50
2018-09-23T19:43:50.131Z,0.60
2018-09-23T19:46:19.160Z,0.50
2018-09-23T19:48:47.014Z,0.80
2018-09-23T19:51:15.967Z,0.60
2018-09-23T19:53:43.970Z,0.68
2018-09-23T19:56:11.757Z,0.60
2018-09-23T19:58:39.617Z,0.80
2018-09-23T20:01:07.648Z,0.65
2018-09-23T20:03:36.012Z,0.70
2018-09-23T20:06:03.733Z,0.70
2018-09-23T20:08:31.837Z,0.80
2018-09-23T20:11:00.159Z,0.88
2018-09-23T20:13:29.262Z,0.75
2018-09-23T20:15:57.305Z,0.70
2018-09-23T20:18:25.254Z,0.70
2018-09-23T20:20:53.386Z,0.82
2018-09-23T20:23:27.076Z,0.70
2018-09-23T20:25:54.982Z,0.70
2018-09-23T20:28:23.989Z,0.70
2018-09-23T20:30:52.640Z,0.70
2018-09-23T20:33:20.536Z,0.60
2018-09-23T20:35:49.510Z,0.72
2018-09-23T20:38:18.077Z,0.68
2018-09-23T20:40:46.118Z,0.80
2018-09-23T20:43:14.180Z,0.70
2018-09-23T20:45:42.090Z,1.00
2018-09-23T20:48:10.236Z,0.70
2018-09-23T20:50:38.511Z,0.80
2018-09-23T20:53:06.358Z,0.78
2018-09-23T20:55:34.360Z,0.80
2018-09-23T20:58:02.819Z,0.70
2018-09-23T21:00:30.780Z,0.80
2018-09-23T21:02:58.764Z,0.70
2018-09-23T21:05:26.821Z,0.70
2018-09-23T21:07:54.916Z,0.72
2018-09-23T21:10:22.957Z,0.70
2018-09-23T21:12:51.232Z,0.60
2018-09-23T21:15:19.415Z,0.60
2018-09-23T21:17:47.683Z,0.80
2018-09-23T21:20:15.409Z,0.70
2018-09-23T21:22:43.116Z,0.70
2018-09-23T21:25:10.946Z,0.70
2018-09-23T21:27:38.820Z,0.70
2018-09-23T21:30:06.835Z,0.70
2018-09-23T21:32:35.724Z,0.70
2018-09-23T21:35:03.667Z,0.70
2018-09-23T21:37:32.618Z,0.70
2018-09-23T21:40:00.627Z,0.60
2018-09-23T21:42:28.428Z,0.75
2018-09-23T21:44:57.064Z,0.65
2018-09-23T21:47:25.607Z,0.60
2018-09-23T21:49:53.586Z,0.80
2018-09-23T21:52:21.398Z,0.65
2018-09-23T21:55:07.309Z,0.70
2018-09-23T21:57:35.516Z,0.70
2018-09-23T22:00:08.341Z,0.70
2018-09-23T22:02:42.437Z,0.80
2018-09-23T22:05:12.218Z,0.82
2018-09-23T22:07:40.675Z,0.60
2018-09-23T22:10:10.279Z,0.72
2018-09-23T22:12:38.247Z,0.60
2018-09-23T22:15:24.798Z,0.70
2018-09-23T22:17:53.510Z,0.80
2018-09-23T22:20:21.565Z,0.70
2018-09-23T22:22:50.130Z,0.80
2018-09-23T22:25:18.108Z,0.90
2018-09-23T22:27:46.151Z,0.70
2018-09-23T22:30:15.085Z,0.75
2018-09-23T22:32:43.810Z,0.70
2018-09-23T22:35:17.540Z,1.15
2018-09-23T22:37:47.118Z,0.80
2018-09-23T22:40:15.531Z,0.90
2018-09-23T22:42:43.269Z,0.80
2018-09-23T22:45:11.132Z,0.88
2018-09-23T22:47:39.732Z,1.10
2018-09-23T22:50:07.762Z,1.00
2018-09-23T22:52:36.388Z,0.88
2018-09-23T22:55:04.265Z,1.00
2018-09-23T22:57:32.961Z,0.90
2018-09-23T23:00:03.978Z,1.20
2018-09-23T23:02:32.016Z,0.70
2018-09-23T23:04:59.698Z,0.90
2018-09-23T23:07:28.889Z,0.70
2018-09-23T23:09:56.683Z,0.93
2018-09-23T23:12:25.377Z,1.15
2018-09-23T23:14:53.524Z,1.00
2018-09-23T23:17:21.346Z,0.90
2018-09-23T23:19:49.341Z,1.15
2018-09-23T23:22:21.120Z,1.20
2018-09-23T23:24:49.167Z,1.20
2018-09-23T23:27:17.273Z,1.00
2018-09-23T23:29:46.364Z,0.82
2018-09-23T23:32:14.593Z,1.07
2018-09-23T23:34:43.431Z,1.00
2018-09-23T23:37:11.156Z,0.90
2018-09-23T23:39:39.904Z,0.90
2018-09-23T23:42:16.657Z,1.22
2018-09-23T23:44:44.489Z,1.10
2018-09-23T23:47:12.470Z,0.90
2018-09-23T23:49:40.376Z,1.00
2018-09-23T23:52:08.061Z,1.27
2018-09-23T23:54:35.864Z,0.80
2018-09-23T23:57:09.427Z,1.10
2018-09-23T23:59:39.210Z,1.20
